logo
Rechercher aéroport 
image banner adimage banner adimage banner ad
image banner ad

LOKZ - Zwatzhof

Situé à District Sankt Veit An Der Glan, Austria

ICAO - , IATA -

Données fournies par Airmate  

Information générale

Coordonnées: N46°58'31" E14°16'26"
Élévation : 2500 feet MSL.
 
Voir autres Aéroports à Carinthia

Données opérationnelles

Special qualification required
Heure actuelle UTC:
Heure actuelle locale:
Météo à : LOWK - Klagenfurt ( 37 km )
METAR: LOWK 241120Z AUTO 29004KT 230V320 9999 BKN080 23/15 Q1017 NOSIG
TAF: TAF LOWK 241115Z 2412/2512 VRB05KT 9999 SCT060 TX26/2414Z TN15/2504Z PROB30 TEMPO 2413/2417 VRB15G25KT TSRA SCT040 FEW050CB TEMPO 2418/2424 02010KT
Voir NOTAMs / SUP AIP / TFR affectant cet aéroport [VIEW]
Fréquences de communication: [VIEW]

Pistes:

Coordonnées de l'aéroport

Adresse: District Sankt Veit An Der Glan Austria

Vue satellite de LOKZ